sensor_id;sensor_type;location;lat;lon;timestamp;P1;durP1;ratioP1;P2;durP2;ratioP2
2538;SDS011;1280;49.760;9.664;2023-04-15T00:01:31;10.53;;;7.10;;
2538;SDS011;1280;49.760;9.664;2023-04-15T00:04:07;10.97;;;6.50;;
2538;SDS011;1280;49.760;9.664;2023-04-15T00:06:37;11.65;;;7.03;;
2538;SDS011;1280;49.760;9.664;2023-04-15T00:09:15;10.37;;;6.67;;
2538;SDS011;1280;49.760;9.664;2023-04-15T00:11:52;12.43;;;6.10;;
2538;SDS011;1280;49.760;9.664;2023-04-15T00:14:24;9.70;;;5.70;;
2538;SDS011;1280;49.760;9.664;2023-04-15T00:17:04;12.48;;;5.47;;
2538;SDS011;1280;49.760;9.664;2023-04-15T00:19:36;8.63;;;5.60;;
2538;SDS011;1280;49.760;9.664;2023-04-15T00:22:13;8.80;;;5.47;;
2538;SDS011;1280;49.760;9.664;2023-04-15T00:24:46;8.07;;;5.20;;
2538;SDS011;1280;49.760;9.664;2023-04-15T00:27:21;8.20;;;5.27;;
2538;SDS011;1280;49.760;9.664;2023-04-15T00:29:52;9.30;;;5.97;;
2538;SDS011;1280;49.760;9.664;2023-04-15T00:32:24;9.17;;;5.97;;
2538;SDS011;1280;49.760;9.664;2023-04-15T00:34:57;9.63;;;6.20;;
2538;SDS011;1280;49.760;9.664;2023-04-15T00:37:37;10.90;;;6.60;;
2538;SDS011;1280;49.760;9.664;2023-04-15T00:40:29;9.00;;;6.40;;
2538;SDS011;1280;49.760;9.664;2023-04-15T00:43:03;10.82;;;6.85;;
2538;SDS011;1280;49.760;9.664;2023-04-15T00:45:41;10.15;;;6.82;;
2538;SDS011;1280;49.760;9.664;2023-04-15T00:48:16;9.73;;;6.43;;
2538;SDS011;1280;49.760;9.664;2023-04-15T00:50:51;9.93;;;6.90;;
2538;SDS011;1280;49.760;9.664;2023-04-15T00:53:22;11.77;;;7.10;;
2538;SDS011;1280;49.760;9.664;2023-04-15T00:56:10;12.20;;;7.22;;
2538;SDS011;1280;49.760;9.664;2023-04-15T00:58:41;10.45;;;7.55;;
2538;SDS011;1280;49.760;9.664;2023-04-15T01:01:18;15.70;;;7.70;;
2538;SDS011;1280;49.760;9.664;2023-04-15T01:03:54;11.40;;;7.70;;
2538;SDS011;1280;49.760;9.664;2023-04-15T01:06:26;9.50;;;6.80;;
2538;SDS011;1280;49.760;9.664;2023-04-15T01:09:00;15.52;;;8.05;;
2538;SDS011;1280;49.760;9.664;2023-04-15T01:11:46;13.17;;;7.60;;
2538;SDS011;1280;49.760;9.664;2023-04-15T01:14:19;9.73;;;6.30;;
2538;SDS011;1280;49.760;9.664;2023-04-15T01:16:56;10.10;;;6.38;;
2538;SDS011;1280;49.760;9.664;2023-04-15T01:19:27;13.40;;;6.77;;
2538;SDS011;1280;49.760;9.664;2023-04-15T01:22:01;12.47;;;7.20;;
2538;SDS011;1280;49.760;9.664;2023-04-15T01:24:37;11.37;;;7.70;;
2538;SDS011;1280;49.760;9.664;2023-04-15T01:27:11;15.98;;;8.05;;
2538;SDS011;1280;49.760;9.664;2023-04-15T01:29:44;11.25;;;7.35;;
2538;SDS011;1280;49.760;9.664;2023-04-15T01:32:23;15.55;;;7.43;;
2538;SDS011;1280;49.760;9.664;2023-04-15T01:34:53;10.50;;;6.20;;
2538;SDS011;1280;49.760;9.664;2023-04-15T01:37:30;10.70;;;7.60;;
2538;SDS011;1280;49.760;9.664;2023-04-15T01:42:56;7.93;;;5.67;;
2538;SDS011;1280;49.760;9.664;2023-04-15T01:45:33;9.97;;;6.20;;
2538;SDS011;1280;49.760;9.664;2023-04-15T01:48:03;7.67;;;5.20;;
2538;SDS011;1280;49.760;9.664;2023-04-15T01:50:36;9.33;;;6.10;;
2538;SDS011;1280;49.760;9.664;2023-04-15T01:53:10;10.43;;;7.20;;
2538;SDS011;1280;49.760;9.664;2023-04-15T01:55:43;10.68;;;6.10;;
2538;SDS011;1280;49.760;9.664;2023-04-15T01:58:19;14.20;;;6.70;;
2538;SDS011;1280;49.760;9.664;2023-04-15T02:00:48;9.18;;;6.30;;
2538;SDS011;1280;49.760;9.664;2023-04-15T02:03:18;9.38;;;6.85;;
2538;SDS011;1280;49.760;9.664;2023-04-15T02:05:52;9.40;;;7.05;;
2538;SDS011;1280;49.760;9.664;2023-04-15T02:08:27;11.30;;;7.60;;
2538;SDS011;1280;49.760;9.664;2023-04-15T02:10:55;10.10;;;6.85;;
2538;SDS011;1280;49.760;9.664;2023-04-15T02:13:46;9.60;;;7.77;;
2538;SDS011;1280;49.760;9.664;2023-04-15T02:16:21;11.65;;;7.68;;
2538;SDS011;1280;49.760;9.664;2023-04-15T02:18:52;11.45;;;7.70;;
2538;SDS011;1280;49.760;9.664;2023-04-15T02:21:30;11.32;;;8.00;;
2538;SDS011;1280;49.760;9.664;2023-04-15T02:24:04;12.53;;;8.03;;
2538;SDS011;1280;49.760;9.664;2023-04-15T02:26:35;13.00;;;8.27;;
2538;SDS011;1280;49.760;9.664;2023-04-15T02:29:29;13.38;;;8.85;;
2538;SDS011;1280;49.760;9.664;2023-04-15T02:32:01;13.73;;;8.93;;
2538;SDS011;1280;49.760;9.664;2023-04-15T02:34:32;15.23;;;8.77;;
2538;SDS011;1280;49.760;9.664;2023-04-15T02:37:09;11.02;;;7.25;;
2538;SDS011;1280;49.760;9.664;2023-04-15T02:39:45;10.60;;;7.25;;
2538;SDS011;1280;49.760;9.664;2023-04-15T02:42:21;11.67;;;7.80;;
2538;SDS011;1280;49.760;9.664;2023-04-15T02:45:13;10.30;;;7.10;;
2538;SDS011;1280;49.760;9.664;2023-04-15T02:47:50;11.75;;;7.10;;
2538;SDS011;1280;49.760;9.664;2023-04-15T02:50:41;7.55;;;5.70;;
2538;SDS011;1280;49.760;9.664;2023-04-15T02:53:13;8.50;;;5.80;;
2538;SDS011;1280;49.760;9.664;2023-04-15T02:55:47;14.33;;;6.97;;
2538;SDS011;1280;49.760;9.664;2023-04-15T02:58:24;10.00;;;6.80;;
2538;SDS011;1280;49.760;9.664;2023-04-15T03:01:02;10.35;;;7.05;;
2538;SDS011;1280;49.760;9.664;2023-04-15T03:03:38;10.97;;;7.40;;
2538;SDS011;1280;49.760;9.664;2023-04-15T03:06:10;10.10;;;6.95;;
2538;SDS011;1280;49.760;9.664;2023-04-15T03:08:44;10.90;;;7.93;;
2538;SDS011;1280;49.760;9.664;2023-04-15T03:11:16;14.43;;;7.77;;
2538;SDS011;1280;49.760;9.664;2023-04-15T03:13:50;11.03;;;7.00;;
2538;SDS011;1280;49.760;9.664;2023-04-15T03:16:43;11.60;;;7.37;;
2538;SDS011;1280;49.760;9.664;2023-04-15T03:19:21;10.15;;;7.05;;
2538;SDS011;1280;49.760;9.664;2023-04-15T03:21:52;10.77;;;6.82;;
2538;SDS011;1280;49.760;9.664;2023-04-15T03:24:27;12.27;;;7.13;;
2538;SDS011;1280;49.760;9.664;2023-04-15T03:27:02;10.93;;;7.27;;
2538;SDS011;1280;49.760;9.664;2023-04-15T03:29:36;13.50;;;7.50;;
2538;SDS011;1280;49.760;9.664;2023-04-15T03:32:26;9.63;;;7.05;;
2538;SDS011;1280;49.760;9.664;2023-04-15T03:34:58;11.40;;;7.45;;
2538;SDS011;1280;49.760;9.664;2023-04-15T03:37:30;10.15;;;7.68;;
2538;SDS011;1280;49.760;9.664;2023-04-15T03:40:14;9.20;;;6.40;;
2538;SDS011;1280;49.760;9.664;2023-04-15T03:42:47;12.95;;;7.93;;
2538;SDS011;1280;49.760;9.664;2023-04-15T03:45:25;13.10;;;7.57;;
2538;SDS011;1280;49.760;9.664;2023-04-15T03:48:11;8.65;;;6.03;;
2538;SDS011;1280;49.760;9.664;2023-04-15T03:50:50;10.03;;;6.03;;
2538;SDS011;1280;49.760;9.664;2023-04-15T03:53:25;8.02;;;5.93;;
2538;SDS011;1280;49.760;9.664;2023-04-15T03:56:05;10.52;;;6.55;;
2538;SDS011;1280;49.760;9.664;2023-04-15T03:58:39;8.98;;;6.20;;
2538;SDS011;1280;49.760;9.664;2023-04-15T04:01:08;7.93;;;5.77;;
2538;SDS011;1280;49.760;9.664;2023-04-15T04:04:07;10.05;;;6.28;;
2538;SDS011;1280;49.760;9.664;2023-04-15T04:06:41;9.15;;;5.90;;
2538;SDS011;1280;49.760;9.664;2023-04-15T04:09:20;9.68;;;6.28;;
2538;SDS011;1280;49.760;9.664;2023-04-15T04:12:04;9.73;;;6.23;;
2538;SDS011;1280;49.760;9.664;2023-04-15T04:14:41;11.65;;;6.95;;
2538;SDS011;1280;49.760;9.664;2023-04-15T04:17:15;8.83;;;6.33;;
2538;SDS011;1280;49.760;9.664;2023-04-15T04:20:01;10.50;;;6.70;;
2538;SDS011;1280;49.760;9.664;2023-04-15T04:22:36;8.63;;;6.35;;
2538;SDS011;1280;49.760;9.664;2023-04-15T04:25:11;9.30;;;6.70;;
2538;SDS011;1280;49.760;9.664;2023-04-15T04:27:46;10.75;;;8.00;;
2538;SDS011;1280;49.760;9.664;2023-04-15T04:30:18;10.93;;;7.25;;
2538;SDS011;1280;49.760;9.664;2023-04-15T04:32:49;12.00;;;7.57;;
2538;SDS011;1280;49.760;9.664;2023-04-15T04:35:35;10.70;;;6.80;;
2538;SDS011;1280;49.760;9.664;2023-04-15T04:38:13;11.55;;;7.20;;
2538;SDS011;1280;49.760;9.664;2023-04-15T04:40:53;10.20;;;6.32;;
2538;SDS011;1280;49.760;9.664;2023-04-15T04:43:22;10.88;;;7.63;;
2538;SDS011;1280;49.760;9.664;2023-04-15T04:46:02;11.35;;;7.30;;
2538;SDS011;1280;49.760;9.664;2023-04-15T04:48:39;12.48;;;7.13;;
2538;SDS011;1280;49.760;9.664;2023-04-15T04:51:19;10.47;;;7.37;;
2538;SDS011;1280;49.760;9.664;2023-04-15T04:53:53;10.80;;;7.88;;
2538;SDS011;1280;49.760;9.664;2023-04-15T04:56:30;13.52;;;7.20;;
2538;SDS011;1280;49.760;9.664;2023-04-15T04:59:09;13.90;;;8.50;;
2538;SDS011;1280;49.760;9.664;2023-04-15T05:01:51;12.43;;;7.72;;
2538;SDS011;1280;49.760;9.664;2023-04-15T05:04:23;14.00;;;8.13;;
2538;SDS011;1280;49.760;9.664;2023-04-15T05:07:05;12.50;;;9.50;;
2538;SDS011;1280;49.760;9.664;2023-04-15T05:09:39;17.60;;;10.67;;
2538;SDS011;1280;49.760;9.664;2023-04-15T05:12:15;124.07;;;61.83;;
2538;SDS011;1280;49.760;9.664;2023-04-15T05:14:56;73.60;;;41.97;;
2538;SDS011;1280;49.760;9.664;2023-04-15T05:17:41;70.28;;;38.72;;
2538;SDS011;1280;49.760;9.664;2023-04-15T05:20:20;27.52;;;16.67;;
2538;SDS011;1280;49.760;9.664;2023-04-15T05:22:58;26.20;;;16.30;;
2538;SDS011;1280;49.760;9.664;2023-04-15T05:25:28;24.23;;;14.70;;
2538;SDS011;1280;49.760;9.664;2023-04-15T05:28:00;22.20;;;11.30;;
2538;SDS011;1280;49.760;9.664;2023-04-15T05:30:34;14.95;;;9.50;;
2538;SDS011;1280;49.760;9.664;2023-04-15T05:33:05;11.33;;;8.07;;
2538;SDS011;1280;49.760;9.664;2023-04-15T05:35:43;10.00;;;7.33;;
2538;SDS011;1280;49.760;9.664;2023-04-15T05:38:19;10.93;;;7.65;;
2538;SDS011;1280;49.760;9.664;2023-04-15T05:40:55;9.63;;;7.20;;
2538;SDS011;1280;49.760;9.664;2023-04-15T05:43:33;10.77;;;7.03;;
2538;SDS011;1280;49.760;9.664;2023-04-15T05:46:04;11.50;;;7.67;;
2538;SDS011;1280;49.760;9.664;2023-04-15T05:48:42;9.20;;;6.90;;
2538;SDS011;1280;49.760;9.664;2023-04-15T05:51:17;12.33;;;7.70;;
2538;SDS011;1280;49.760;9.664;2023-04-15T05:53:54;14.20;;;7.07;;
2538;SDS011;1280;49.760;9.664;2023-04-15T05:56:27;10.00;;;7.30;;
2538;SDS011;1280;49.760;9.664;2023-04-15T05:59:07;14.10;;;8.40;;
2538;SDS011;1280;49.760;9.664;2023-04-15T06:01:43;11.20;;;6.90;;
2538;SDS011;1280;49.760;9.664;2023-04-15T06:04:21;12.57;;;7.57;;
2538;SDS011;1280;49.760;9.664;2023-04-15T06:06:56;12.80;;;8.50;;
2538;SDS011;1280;49.760;9.664;2023-04-15T06:09:44;9.70;;;7.40;;
2538;SDS011;1280;49.760;9.664;2023-04-15T06:12:19;12.63;;;8.73;;
2538;SDS011;1280;49.760;9.664;2023-04-15T06:14:50;13.97;;;8.47;;
2538;SDS011;1280;49.760;9.664;2023-04-15T06:17:26;13.87;;;8.27;;
2538;SDS011;1280;49.760;9.664;2023-04-15T06:19:59;13.20;;;7.80;;
2538;SDS011;1280;49.760;9.664;2023-04-15T06:22:35;13.33;;;8.60;;
2538;SDS011;1280;49.760;9.664;2023-04-15T06:25:27;10.85;;;7.35;;
2538;SDS011;1280;49.760;9.664;2023-04-15T06:28:00;9.10;;;6.50;;
2538;SDS011;1280;49.760;9.664;2023-04-15T06:30:41;9.30;;;6.77;;
2538;SDS011;1280;49.760;9.664;2023-04-15T06:33:16;8.20;;;5.97;;
2538;SDS011;1280;49.760;9.664;2023-04-15T06:35:55;11.73;;;7.10;;
2538;SDS011;1280;49.760;9.664;2023-04-15T06:38:27;9.98;;;6.57;;
2538;SDS011;1280;49.760;9.664;2023-04-15T06:41:12;10.90;;;6.43;;
2538;SDS011;1280;49.760;9.664;2023-04-15T06:43:49;10.07;;;6.73;;
2538;SDS011;1280;49.760;9.664;2023-04-15T06:46:20;10.40;;;7.50;;
2538;SDS011;1280;49.760;9.664;2023-04-15T06:48:54;10.93;;;7.30;;
2538;SDS011;1280;49.760;9.664;2023-04-15T06:51:29;11.00;;;7.90;;
2538;SDS011;1280;49.760;9.664;2023-04-15T06:54:07;11.53;;;7.80;;
2538;SDS011;1280;49.760;9.664;2023-04-15T06:56:59;11.27;;;7.57;;
2538;SDS011;1280;49.760;9.664;2023-04-15T06:59:31;13.53;;;8.70;;
2538;SDS011;1280;49.760;9.664;2023-04-15T07:02:01;16.83;;;8.43;;
2538;SDS011;1280;49.760;9.664;2023-04-15T07:04:35;11.93;;;8.23;;
2538;SDS011;1280;49.760;9.664;2023-04-15T07:07:12;12.57;;;8.03;;
2538;SDS011;1280;49.760;9.664;2023-04-15T07:09:46;15.40;;;8.20;;
2538;SDS011;1280;49.760;9.664;2023-04-15T07:12:24;11.70;;;7.20;;
2538;SDS011;1280;49.760;9.664;2023-04-15T07:14:57;12.40;;;7.23;;
2538;SDS011;1280;49.760;9.664;2023-04-15T07:17:30;10.40;;;6.53;;
2538;SDS011;1280;49.760;9.664;2023-04-15T07:22:59;12.10;;;7.20;;
2538;SDS011;1280;49.760;9.664;2023-04-15T07:25:40;11.10;;;6.50;;
2538;SDS011;1280;49.760;9.664;2023-04-15T07:28:16;9.87;;;6.77;;
2538;SDS011;1280;49.760;9.664;2023-04-15T07:30:50;9.03;;;6.20;;
2538;SDS011;1280;49.760;9.664;2023-04-15T07:33:23;13.60;;;8.00;;
2538;SDS011;1280;49.760;9.664;2023-04-15T07:35:55;7.93;;;5.60;;
2538;SDS011;1280;49.760;9.664;2023-04-15T07:38:28;8.80;;;6.07;;
2538;SDS011;1280;49.760;9.664;2023-04-15T07:41:03;11.70;;;6.70;;
2538;SDS011;1280;49.760;9.664;2023-04-15T07:43:49;9.17;;;5.87;;
2538;SDS011;1280;49.760;9.664;2023-04-15T07:46:23;9.73;;;5.77;;
2538;SDS011;1280;49.760;9.664;2023-04-15T07:48:58;10.37;;;6.53;;
2538;SDS011;1280;49.760;9.664;2023-04-15T07:51:31;11.27;;;6.50;;
2538;SDS011;1280;49.760;9.664;2023-04-15T07:54:10;10.33;;;6.57;;
2538;SDS011;1280;49.760;9.664;2023-04-15T07:56:40;14.77;;;6.80;;
2538;SDS011;1280;49.760;9.664;2023-04-15T07:59:21;13.87;;;6.50;;
2538;SDS011;1280;49.760;9.664;2023-04-15T08:01:57;9.87;;;6.27;;
2538;SDS011;1280;49.760;9.664;2023-04-15T08:04:30;10.27;;;6.23;;
2538;SDS011;1280;49.760;9.664;2023-04-15T08:07:04;9.70;;;6.70;;
2538;SDS011;1280;49.760;9.664;2023-04-15T08:09:35;14.60;;;5.90;;
2538;SDS011;1280;49.760;9.664;2023-04-15T08:12:11;10.93;;;6.93;;
2538;SDS011;1280;49.760;9.664;2023-04-15T08:14:46;10.63;;;6.90;;
2538;SDS011;1280;49.760;9.664;2023-04-15T08:17:18;10.10;;;6.63;;
2538;SDS011;1280;49.760;9.664;2023-04-15T08:19:58;14.13;;;7.07;;
2538;SDS011;1280;49.760;9.664;2023-04-15T08:22:30;10.90;;;6.63;;
2538;SDS011;1280;49.760;9.664;2023-04-15T08:25:05;10.50;;;6.47;;
2538;SDS011;1280;49.760;9.664;2023-04-15T08:27:39;9.70;;;6.90;;
2538;SDS011;1280;49.760;9.664;2023-04-15T08:30:16;8.93;;;6.37;;
2538;SDS011;1280;49.760;9.664;2023-04-15T08:33:00;8.60;;;5.87;;
2538;SDS011;1280;49.760;9.664;2023-04-15T08:35:40;8.37;;;6.07;;
2538;SDS011;1280;49.760;9.664;2023-04-15T08:38:13;9.73;;;6.13;;
2538;SDS011;1280;49.760;9.664;2023-04-15T08:40:47;12.80;;;6.50;;
2538;SDS011;1280;49.760;9.664;2023-04-15T08:43:19;8.80;;;5.53;;
2538;SDS011;1280;49.760;9.664;2023-04-15T08:45:58;7.83;;;5.37;;
2538;SDS011;1280;49.760;9.664;2023-04-15T08:48:34;8.70;;;5.50;;
2538;SDS011;1280;49.760;9.664;2023-04-15T08:51:08;9.23;;;5.30;;
2538;SDS011;1280;49.760;9.664;2023-04-15T08:53:45;8.87;;;5.27;;
2538;SDS011;1280;49.760;9.664;2023-04-15T08:56:15;7.30;;;4.17;;
2538;SDS011;1280;49.760;9.664;2023-04-15T08:58:54;8.57;;;4.60;;
2538;SDS011;1280;49.760;9.664;2023-04-15T09:01:37;8.27;;;4.80;;
2538;SDS011;1280;49.760;9.664;2023-04-15T09:04:10;7.67;;;3.97;;
2538;SDS011;1280;49.760;9.664;2023-04-15T09:06:48;7.13;;;4.47;;
2538;SDS011;1280;49.760;9.664;2023-04-15T09:09:23;6.67;;;4.37;;
2538;SDS011;1280;49.760;9.664;2023-04-15T09:11:54;9.13;;;3.03;;
2538;SDS011;1280;49.760;9.664;2023-04-15T09:14:35;6.03;;;3.30;;
2538;SDS011;1280;49.760;9.664;2023-04-15T09:17:18;7.53;;;3.23;;
2538;SDS011;1280;49.760;9.664;2023-04-15T09:20:06;7.87;;;2.80;;
2538;SDS011;1280;49.760;9.664;2023-04-15T09:22:40;5.73;;;2.90;;
2538;SDS011;1280;49.760;9.664;2023-04-15T09:25:28;5.97;;;3.43;;
2538;SDS011;1280;49.760;9.664;2023-04-15T09:28:01;5.40;;;2.67;;
2538;SDS011;1280;49.760;9.664;2023-04-15T09:30:34;5.30;;;2.23;;
2538;SDS011;1280;49.760;9.664;2023-04-15T09:33:22;4.93;;;2.73;;
2538;SDS011;1280;49.760;9.664;2023-04-15T09:35:59;6.37;;;2.70;;
2538;SDS011;1280;49.760;9.664;2023-04-15T09:38:30;4.37;;;2.13;;
2538;SDS011;1280;49.760;9.664;2023-04-15T09:41:02;6.23;;;2.57;;
2538;SDS011;1280;49.760;9.664;2023-04-15T09:43:47;5.97;;;2.63;;
2538;SDS011;1280;49.760;9.664;2023-04-15T09:49:29;5.93;;;2.80;;
2538;SDS011;1280;49.760;9.664;2023-04-15T09:52:06;6.47;;;3.20;;
2538;SDS011;1280;49.760;9.664;2023-04-15T09:54:46;7.00;;;2.80;;
2538;SDS011;1280;49.760;9.664;2023-04-15T09:57:21;5.07;;;2.87;;
2538;SDS011;1280;49.760;9.664;2023-04-15T09:59:50;9.47;;;5.43;;
2538;SDS011;1280;49.760;9.664;2023-04-15T10:02:25;9.67;;;4.60;;
2538;SDS011;1280;49.760;9.664;2023-04-15T10:05:06;92.87;;;42.07;;
2538;SDS011;1280;49.760;9.664;2023-04-15T10:07:41;9.00;;;4.57;;
2538;SDS011;1280;49.760;9.664;2023-04-15T10:10:22;6.97;;;3.63;;
2538;SDS011;1280;49.760;9.664;2023-04-15T10:12:57;6.20;;;3.50;;
2538;SDS011;1280;49.760;9.664;2023-04-15T10:15:29;6.40;;;3.63;;
2538;SDS011;1280;49.760;9.664;2023-04-15T10:17:59;7.37;;;3.57;;
2538;SDS011;1280;49.760;9.664;2023-04-15T10:20:47;7.97;;;3.90;;
2538;SDS011;1280;49.760;9.664;2023-04-15T10:23:22;7.23;;;3.23;;
2538;SDS011;1280;49.760;9.664;2023-04-15T10:26:03;5.87;;;3.40;;
2538;SDS011;1280;49.760;9.664;2023-04-15T10:28:33;7.97;;;3.60;;
2538;SDS011;1280;49.760;9.664;2023-04-15T10:31:10;8.17;;;3.93;;
2538;SDS011;1280;49.760;9.664;2023-04-15T10:33:45;5.73;;;3.70;;
2538;SDS011;1280;49.760;9.664;2023-04-15T10:36:29;5.67;;;3.17;;
2538;SDS011;1280;49.760;9.664;2023-04-15T10:42:21;3.97;;;1.50;;
2538;SDS011;1280;49.760;9.664;2023-04-15T10:45:01;3.70;;;1.30;;
2538;SDS011;1280;49.760;9.664;2023-04-15T10:47:31;4.60;;;1.77;;
2538;SDS011;1280;49.760;9.664;2023-04-15T10:50:11;3.60;;;1.40;;
2538;SDS011;1280;49.760;9.664;2023-04-15T10:52:50;4.60;;;1.33;;
2538;SDS011;1280;49.760;9.664;2023-04-15T10:55:23;3.80;;;1.20;;
2538;SDS011;1280;49.760;9.664;2023-04-15T10:57:57;3.60;;;1.10;;
2538;SDS011;1280;49.760;9.664;2023-04-15T11:00:29;4.50;;;1.17;;
2538;SDS011;1280;49.760;9.664;2023-04-15T11:03:09;4.57;;;1.40;;
2538;SDS011;1280;49.760;9.664;2023-04-15T11:05:50;4.13;;;1.20;;
2538;SDS011;1280;49.760;9.664;2023-04-15T11:14:38;4.17;;;1.37;;
2538;SDS011;1280;49.760;9.664;2023-04-15T11:17:20;3.40;;;1.27;;
2538;SDS011;1280;49.760;9.664;2023-04-15T11:19:59;4.63;;;1.50;;
2538;SDS011;1280;49.760;9.664;2023-04-15T11:22:38;4.43;;;1.27;;
2538;SDS011;1280;49.760;9.664;2023-04-15T11:28:11;4.00;;;1.63;;
2538;SDS011;1280;49.760;9.664;2023-04-15T11:30:50;5.20;;;1.70;;
2538;SDS011;1280;49.760;9.664;2023-04-15T11:33:34;7.30;;;4.23;;
2538;SDS011;1280;49.760;9.664;2023-04-15T11:36:16;4.27;;;1.93;;
2538;SDS011;1280;49.760;9.664;2023-04-15T11:38:50;3.90;;;1.97;;
2538;SDS011;1280;49.760;9.664;2023-04-15T11:41:23;8.07;;;2.73;;
2538;SDS011;1280;49.760;9.664;2023-04-15T11:43:57;7.93;;;3.40;;
2538;SDS011;1280;49.760;9.664;2023-04-15T11:46:31;8.03;;;3.33;;
2538;SDS011;1280;49.760;9.664;2023-04-15T11:49:03;9.43;;;2.43;;
2538;SDS011;1280;49.760;9.664;2023-04-15T11:51:48;3.50;;;1.30;;
2538;SDS011;1280;49.760;9.664;2023-04-15T11:54:19;3.93;;;1.50;;
2538;SDS011;1280;49.760;9.664;2023-04-15T11:57:06;3.40;;;1.43;;
2538;SDS011;1280;49.760;9.664;2023-04-15T11:59:40;4.27;;;1.47;;
2538;SDS011;1280;49.760;9.664;2023-04-15T12:02:15;5.03;;;1.60;;
2538;SDS011;1280;49.760;9.664;2023-04-15T12:05:01;4.40;;;1.47;;
2538;SDS011;1280;49.760;9.664;2023-04-15T12:07:32;5.30;;;1.50;;
2538;SDS011;1280;49.760;9.664;2023-04-15T12:10:14;6.57;;;3.27;;
2538;SDS011;1280;49.760;9.664;2023-04-15T12:12:52;5.10;;;3.33;;
2538;SDS011;1280;49.760;9.664;2023-04-15T12:15:25;8.90;;;6.43;;
2538;SDS011;1280;49.760;9.664;2023-04-15T12:17:58;7.13;;;3.60;;
2538;SDS011;1280;49.760;9.664;2023-04-15T12:20:42;7.57;;;4.27;;
2538;SDS011;1280;49.760;9.664;2023-04-15T12:23:18;6.87;;;5.07;;
2538;SDS011;1280;49.760;9.664;2023-04-15T12:25:51;5.90;;;2.90;;
2538;SDS011;1280;49.760;9.664;2023-04-15T12:28:34;7.37;;;3.90;;
2538;SDS011;1280;49.760;9.664;2023-04-15T12:31:09;5.43;;;2.87;;
2538;SDS011;1280;49.760;9.664;2023-04-15T12:33:53;10.37;;;8.07;;
2538;SDS011;1280;49.760;9.664;2023-04-15T12:36:29;3.30;;;1.20;;
2538;SDS011;1280;49.760;9.664;2023-04-15T12:39:07;4.30;;;1.60;;
2538;SDS011;1280;49.760;9.664;2023-04-15T12:41:41;3.80;;;1.70;;
2538;SDS011;1280;49.760;9.664;2023-04-15T12:44:19;3.80;;;1.73;;
2538;SDS011;1280;49.760;9.664;2023-04-15T12:46:53;3.97;;;1.70;;
2538;SDS011;1280;49.760;9.664;2023-04-15T12:49:28;4.50;;;2.10;;
2538;SDS011;1280;49.760;9.664;2023-04-15T12:52:08;3.43;;;1.43;;
2538;SDS011;1280;49.760;9.664;2023-04-15T12:54:39;3.97;;;1.77;;
2538;SDS011;1280;49.760;9.664;2023-04-15T12:57:18;4.20;;;1.83;;
2538;SDS011;1280;49.760;9.664;2023-04-15T12:59:57;3.73;;;1.77;;
2538;SDS011;1280;49.760;9.664;2023-04-15T13:02:29;5.10;;;2.70;;
2538;SDS011;1280;49.760;9.664;2023-04-15T13:05:06;5.17;;;2.90;;
2538;SDS011;1280;49.760;9.664;2023-04-15T13:07:39;5.20;;;1.70;;
2538;SDS011;1280;49.760;9.664;2023-04-15T13:10:16;4.73;;;1.70;;
2538;SDS011;1280;49.760;9.664;2023-04-15T13:12:47;3.90;;;1.70;;
2538;SDS011;1280;49.760;9.664;2023-04-15T13:15:36;7.30;;;2.10;;
2538;SDS011;1280;49.760;9.664;2023-04-15T13:18:12;4.60;;;2.17;;
2538;SDS011;1280;49.760;9.664;2023-04-15T13:20:46;4.60;;;2.03;;
2538;SDS011;1280;49.760;9.664;2023-04-15T13:23:19;5.80;;;2.07;;
2538;SDS011;1280;49.760;9.664;2023-04-15T13:25:54;5.57;;;2.20;;
2538;SDS011;1280;49.760;9.664;2023-04-15T13:28:34;4.63;;;2.47;;
2538;SDS011;1280;49.760;9.664;2023-04-15T13:31:09;4.37;;;2.00;;
2538;SDS011;1280;49.760;9.664;2023-04-15T13:33:38;4.77;;;2.00;;
2538;SDS011;1280;49.760;9.664;2023-04-15T13:36:12;4.87;;;2.73;;
2538;SDS011;1280;49.760;9.664;2023-04-15T13:38:44;4.47;;;2.17;;
2538;SDS011;1280;49.760;9.664;2023-04-15T13:41:19;4.77;;;2.10;;
2538;SDS011;1280;49.760;9.664;2023-04-15T13:43:49;6.53;;;2.50;;
2538;SDS011;1280;49.760;9.664;2023-04-15T13:46:31;4.33;;;2.17;;
2538;SDS011;1280;49.760;9.664;2023-04-15T13:49:15;4.50;;;2.47;;
2538;SDS011;1280;49.760;9.664;2023-04-15T13:51:53;5.80;;;2.47;;
2538;SDS011;1280;49.760;9.664;2023-04-15T13:54:28;5.03;;;2.73;;
2538;SDS011;1280;49.760;9.664;2023-04-15T13:57:04;5.63;;;2.43;;
2538;SDS011;1280;49.760;9.664;2023-04-15T13:59:34;5.07;;;2.47;;
2538;SDS011;1280;49.760;9.664;2023-04-15T14:02:16;6.53;;;2.80;;
2538;SDS011;1280;49.760;9.664;2023-04-15T14:04:47;5.90;;;2.67;;
2538;SDS011;1280;49.760;9.664;2023-04-15T14:07:18;4.30;;;2.20;;
2538;SDS011;1280;49.760;9.664;2023-04-15T14:09:59;4.30;;;2.03;;
2538;SDS011;1280;49.760;9.664;2023-04-15T14:12:37;7.77;;;2.20;;
2538;SDS011;1280;49.760;9.664;2023-04-15T14:15:21;6.43;;;3.00;;
2538;SDS011;1280;49.760;9.664;2023-04-15T14:18:44;5.20;;;2.90;;
2538;SDS011;1280;49.760;9.664;2023-04-15T14:21:46;5.70;;;2.67;;
2538;SDS011;1280;49.760;9.664;2023-04-15T14:24:28;4.40;;;2.30;;
2538;SDS011;1280;49.760;9.664;2023-04-15T14:27:40;4.83;;;2.50;;
2538;SDS011;1280;49.760;9.664;2023-04-15T14:30:45;7.13;;;3.00;;
2538;SDS011;1280;49.760;9.664;2023-04-15T14:33:28;4.90;;;2.57;;
2538;SDS011;1280;49.760;9.664;2023-04-15T14:36:22;4.50;;;2.90;;
2538;SDS011;1280;49.760;9.664;2023-04-15T14:39:22;6.37;;;3.30;;
2538;SDS011;1280;49.760;9.664;2023-04-15T14:41:57;8.40;;;3.00;;
2538;SDS011;1280;49.760;9.664;2023-04-15T14:44:40;4.90;;;2.63;;
2538;SDS011;1280;49.760;9.664;2023-04-15T14:47:18;4.70;;;2.37;;
2538;SDS011;1280;49.760;9.664;2023-04-15T14:50:13;4.67;;;2.40;;
2538;SDS011;1280;49.760;9.664;2023-04-15T14:52:52;4.93;;;2.57;;
2538;SDS011;1280;49.760;9.664;2023-04-15T14:55:48;5.23;;;2.63;;
2538;SDS011;1280;49.760;9.664;2023-04-15T14:58:34;5.90;;;2.63;;
2538;SDS011;1280;49.760;9.664;2023-04-15T15:01:10;5.27;;;2.87;;
2538;SDS011;1280;49.760;9.664;2023-04-15T15:03:46;5.43;;;2.60;;
2538;SDS011;1280;49.760;9.664;2023-04-15T15:06:42;4.97;;;2.20;;
2538;SDS011;1280;49.760;9.664;2023-04-15T15:09:18;5.97;;;2.23;;
2538;SDS011;1280;49.760;9.664;2023-04-15T15:12:07;7.07;;;2.83;;
2538;SDS011;1280;49.760;9.664;2023-04-15T15:14:58;5.10;;;2.50;;
2538;SDS011;1280;49.760;9.664;2023-04-15T15:17:56;4.67;;;2.47;;
2538;SDS011;1280;49.760;9.664;2023-04-15T15:20:25;4.80;;;2.33;;
2538;SDS011;1280;49.760;9.664;2023-04-15T15:23:16;5.07;;;3.00;;
2538;SDS011;1280;49.760;9.664;2023-04-15T15:29:13;5.33;;;2.70;;
2538;SDS011;1280;49.760;9.664;2023-04-15T15:31:52;4.70;;;2.37;;
2538;SDS011;1280;49.760;9.664;2023-04-15T15:34:27;5.03;;;2.20;;
2538;SDS011;1280;49.760;9.664;2023-04-15T15:36:58;5.00;;;2.60;;
2538;SDS011;1280;49.760;9.664;2023-04-15T15:39:29;6.03;;;2.63;;
2538;SDS011;1280;49.760;9.664;2023-04-15T15:42:23;5.23;;;2.83;;
2538;SDS011;1280;49.760;9.664;2023-04-15T15:45:01;6.07;;;3.10;;
2538;SDS011;1280;49.760;9.664;2023-04-15T15:47:40;6.07;;;2.93;;
2538;SDS011;1280;49.760;9.664;2023-04-15T15:50:19;6.10;;;3.63;;
2538;SDS011;1280;49.760;9.664;2023-04-15T15:52:53;6.10;;;3.40;;
2538;SDS011;1280;49.760;9.664;2023-04-15T15:55:29;6.20;;;3.10;;
2538;SDS011;1280;49.760;9.664;2023-04-15T15:58:03;5.47;;;2.87;;
2538;SDS011;1280;49.760;9.664;2023-04-15T16:00:32;4.90;;;2.70;;
2538;SDS011;1280;49.760;9.664;2023-04-15T16:03:11;5.60;;;3.40;;
2538;SDS011;1280;49.760;9.664;2023-04-15T16:05:49;7.20;;;3.33;;
2538;SDS011;1280;49.760;9.664;2023-04-15T16:08:22;5.40;;;3.27;;
2538;SDS011;1280;49.760;9.664;2023-04-15T16:10:57;7.43;;;3.20;;
2538;SDS011;1280;49.760;9.664;2023-04-15T16:13:31;6.33;;;3.10;;
2538;SDS011;1280;49.760;9.664;2023-04-15T16:16:04;5.90;;;4.07;;
2538;SDS011;1280;49.760;9.664;2023-04-15T16:18:37;5.90;;;3.00;;
2538;SDS011;1280;49.760;9.664;2023-04-15T16:21:10;7.40;;;3.63;;
2538;SDS011;1280;49.760;9.664;2023-04-15T16:23:45;7.40;;;3.97;;
2538;SDS011;1280;49.760;9.664;2023-04-15T16:26:29;6.13;;;3.03;;
2538;SDS011;1280;49.760;9.664;2023-04-15T16:29:13;6.07;;;3.33;;
2538;SDS011;1280;49.760;9.664;2023-04-15T16:31:45;6.10;;;3.03;;
2538;SDS011;1280;49.760;9.664;2023-04-15T16:34:19;9.20;;;2.97;;
2538;SDS011;1280;49.760;9.664;2023-04-15T16:36:57;4.87;;;3.20;;